Time;durP1;ratioP1;P1;durP2;ratioP2;P2;SDS_P1;SDS_P2;PMS_P1;PMS_P2;Temp;Humidity;BMP_temperature;BMP_pressure;BME280_temperature;BME280_humidity;BME280_pressure;Samples;Min_cycle;Max_cycle;Signal;HPM_P1;HPM_P2
2021/11/01 00:02:03;;;;;;;28.27;25.38;;;;;;;;;;5071493;28;24753;-60
2021/11/01 00:04:28;;;;;;;26.60;24.00;;;;;;;;;;5074219;28;24508;-60
2021/11/01 00:06:54;;;;;;;27.17;24.37;;;;;;;;;;5061861;28;24847;-60
2021/11/01 00:09:19;;;;;;;28.07;25.17;;;;;;;;;;5059816;28;24486;-60
2021/11/01 00:11:44;;;;;;;28.50;25.60;;;;;;;;;;5061812;28;24976;-59
2021/11/01 00:14:10;;;;;;;28.17;25.33;;;;;;;;;;5057932;28;24394;-60
2021/11/01 00:16:35;;;;;;;26.30;23.70;;;;;;;;;;5055905;28;24944;-60
2021/11/01 00:19:00;;;;;;;27.83;24.83;;;;;;;;;;5081770;28;25020;-59
2021/11/01 00:21:25;;;;;;;26.27;23.67;;;;;;;;;;5079569;28;24399;-59
2021/11/01 00:23:51;;;;;;;26.25;23.52;;;;;;;;;;5081655;28;24539;-59
2021/11/01 00:26:16;;;;;;;28.33;25.43;;;;;;;;;;5079581;28;25017;-59
2021/11/01 00:28:42;;;;;;;29.50;26.70;;;;;;;;;;5077969;28;24394;-59
2021/11/01 00:31:07;;;;;;;27.55;24.95;;;;;;;;;;5079724;28;24487;-59
2021/11/01 00:33:32;;;;;;;28.00;25.10;;;;;;;;;;5079876;28;24413;-61
2021/11/01 00:35:57;;;;;;;26.90;24.30;;;;;;;;;;5079550;28;24468;-59
2021/11/01 00:38:23;;;;;;;28.52;25.80;;;;;;;;;;5079163;28;24412;-59
2021/11/01 00:40:48;;;;;;;27.77;24.97;;;;;;;;;;5075429;28;24536;-59
2021/11/01 00:43:13;;;;;;;27.60;24.80;;;;;;;;;;5075509;28;25036;-59
2021/11/01 00:45:39;;;;;;;28.57;25.67;;;;;;;;;;5081337;28;24485;-59
2021/11/01 00:48:04;;;;;;;28.27;25.52;;;;;;;;;;5081563;28;24772;-61
2021/11/01 00:50:30;;;;;;;28.80;26.10;;;;;;;;;;5079131;28;24835;-60
2021/11/01 00:52:56;;;;;;;27.88;25.17;;;;;;;;;;5075267;28;25242;-60
2021/11/01 00:55:25;;;;;;;29.53;26.63;;;;;;;;;;5079554;28;24455;-60
2021/11/01 00:57:50;;;;;;;29.33;26.33;;;;;;;;;;5080786;28;24400;-60
2021/11/01 01:00:15;;;;;;;29.33;26.43;;;;;;;;;;5080846;28;24429;-60
2021/11/01 01:02:40;;;;;;;28.63;25.73;;;;;;;;;;5078487;28;24808;-59
2021/11/01 01:05:06;;;;;;;28.30;25.40;;;;;;;;;;5075630;28;24480;-60
2021/11/01 01:07:32;;;;;;;28.93;26.07;;;;;;;;;;5075546;28;24821;-60
2021/11/01 01:09:57;;;;;;;28.20;25.40;;;;;;;;;;5074981;28;24449;-60
2021/11/01 01:12:23;;;;;;;27.27;24.58;;;;;;;;;;5077574;28;24540;-60
2021/11/01 01:14:59;;;;;;;28.75;25.75;;;;;;;;;;5083487;28;25158;-59
2021/11/01 01:17:25;;;;;;;30.45;27.25;;;;;;;;;;5079574;28;24395;-60
2021/11/01 01:20:12;;;;;;;28.75;25.75;;;;;;;;;;5069786;28;24415;-60
2021/11/01 01:22:37;;;;;;;27.37;24.50;;;;;;;;;;5081051;28;24405;-60
2021/11/01 01:25:17;;;;;;;26.83;24.03;;;;;;;;;;5078129;28;24399;-59
2021/11/01 01:27:43;;;;;;;29.50;26.60;;;;;;;;;;5062808;28;24614;-60
2021/11/01 01:30:10;;;;;;;28.67;25.67;;;;;;;;;;5060461;28;24951;-60
2021/11/01 01:32:35;;;;;;;27.13;24.33;;;;;;;;;;5058625;28;24899;-60
2021/11/01 01:35:00;;;;;;;26.57;23.83;;;;;;;;;;5073433;28;24430;-61
2021/11/01 01:37:25;;;;;;;28.08;25.17;;;;;;;;;;5089737;28;24414;-60
2021/11/01 01:39:50;;;;;;;28.37;25.37;;;;;;;;;;5074336;28;24433;-60
2021/11/01 01:42:15;;;;;;;28.98;26.10;;;;;;;;;;5065695;28;24925;-60
2021/11/01 01:44:41;;;;;;;29.77;26.67;;;;;;;;;;5065762;28;24418;-60
2021/11/01 01:47:07;;;;;;;27.73;24.83;;;;;;;;;;5070952;28;24475;-60
2021/11/01 01:49:32;;;;;;;28.98;25.98;;;;;;;;;;5070963;28;24458;-60
2021/11/01 01:51:58;;;;;;;28.27;25.35;;;;;;;;;;5063624;28;24722;-60
2021/11/01 01:54:23;;;;;;;29.80;26.80;;;;;;;;;;5071221;28;24468;-61
2021/11/01 01:56:48;;;;;;;28.85;25.85;;;;;;;;;;5078043;28;24966;-60
2021/11/01 01:59:16;;;;;;;28.37;25.40;;;;;;;;;;5064431;28;24425;-61
2021/11/01 02:01:41;;;;;;;28.60;25.70;;;;;;;;;;5065197;28;24502;-60
2021/11/01 02:04:07;;;;;;;30.40;27.40;;;;;;;;;;5075082;28;24515;-60
2021/11/01 02:06:48;;;;;;;29.30;26.47;;;;;;;;;;5069905;28;24425;-60
2021/11/01 02:09:36;;;;;;;31.20;28.00;;;;;;;;;;5082610;28;24567;-61
2021/11/01 02:12:14;;;;;;;29.10;26.30;;;;;;;;;;5081779;28;24518;-60
2021/11/01 02:14:44;;;;;;;32.38;29.08;;;;;;;;;;5077269;28;24434;-60
2021/11/01 02:17:11;;;;;;;31.17;28.17;;;;;;;;;;5068409;28;24464;-61
2021/11/01 02:19:48;;;;;;;29.40;26.50;;;;;;;;;;5064184;28;25167;-61
2021/11/01 02:22:20;;;;;;;31.10;28.20;;;;;;;;;;5083444;28;24425;-60
2021/11/01 02:25:04;;;;;;;30.33;27.25;;;;;;;;;;5080360;28;24433;-60
2021/11/01 02:27:32;;;;;;;31.42;28.23;;;;;;;;;;5079767;28;24975;-60
2021/11/01 02:29:58;;;;;;;29.73;26.83;;;;;;;;;;5062002;28;24422;-60
2021/11/01 02:32:23;;;;;;;28.67;25.67;;;;;;;;;;5077378;28;24852;-60
2021/11/01 02:34:49;;;;;;;32.10;28.80;;;;;;;;;;5091569;28;24411;-60
2021/11/01 02:37:14;;;;;;;30.77;27.60;;;;;;;;;;5082277;28;24460;-60
2021/11/01 02:39:46;;;;;;;29.05;26.02;;;;;;;;;;5072313;28;25249;-60
2021/11/01 02:42:12;;;;;;;29.42;26.52;;;;;;;;;;5059343;28;24387;-60
2021/11/01 02:44:47;;;;;;;30.43;27.43;;;;;;;;;;5072102;28;24516;-60
2021/11/01 02:47:14;;;;;;;30.98;27.88;;;;;;;;;;5083850;28;24378;-60
2021/11/01 02:49:39;;;;;;;30.25;27.15;;;;;;;;;;5081666;28;24390;-60
2021/11/01 02:52:05;;;;;;;28.65;25.02;;;;;;;;;;5080054;28;25060;-60
2021/11/01 02:54:30;;;;;;;31.25;28.15;;;;;;;;;;5057636;28;24472;-60
2021/11/01 02:56:55;;;;;;;30.42;27.13;;;;;;;;;;5072655;28;24402;-61
2021/11/01 02:59:20;;;;;;;28.77;25.77;;;;;;;;;;5081374;28;24510;-60
2021/11/01 03:01:45;;;;;;;31.73;28.33;;;;;;;;;;5076454;28;24458;-60
2021/11/01 03:04:10;;;;;;;29.50;26.50;;;;;;;;;;5066723;28;24765;-60
2021/11/01 03:06:36;;;;;;;28.80;25.80;;;;;;;;;;5093322;28;24394;-60
2021/11/01 03:09:01;;;;;;;31.30;28.10;;;;;;;;;;5095620;28;24378;-60
2021/11/01 03:11:27;;;;;;;31.97;28.50;;;;;;;;;;5079054;28;24604;-60
2021/11/01 03:13:53;;;;;;;31.02;27.73;;;;;;;;;;5082839;28;24493;-61
2021/11/01 03:16:20;;;;;;;31.23;28.03;;;;;;;;;;5080633;28;24497;-61
2021/11/01 03:18:51;;;;;;;30.38;27.08;;;;;;;;;;5082439;28;24413;-60
2021/11/01 03:21:21;;;;;;;30.93;27.73;;;;;;;;;;5081927;28;24440;-60
2021/11/01 03:23:47;;;;;;;29.95;26.95;;;;;;;;;;5077181;28;24451;-60
2021/11/01 03:26:16;;;;;;;28.77;25.80;;;;;;;;;;5078758;28;24398;-60
2021/11/01 03:28:41;;;;;;;31.67;28.17;;;;;;;;;;5078698;28;24953;-60
2021/11/01 03:31:07;;;;;;;32.47;29.07;;;;;;;;;;5082317;28;24509;-61
2021/11/01 03:33:37;;;;;;;30.70;27.60;;;;;;;;;;5091569;28;24449;-61
2021/11/01 03:36:03;;;;;;;31.10;28.00;;;;;;;;;;5102638;28;24722;-61
2021/11/01 03:38:29;;;;;;;31.90;28.60;;;;;;;;;;5090186;28;24441;-60
2021/11/01 03:40:54;;;;;;;31.90;28.50;;;;;;;;;;5075534;28;24444;-61
2021/11/01 03:43:32;;;;;;;32.55;28.63;;;;;;;;;;5060150;28;24414;-61
2021/11/01 03:45:59;;;;;;;30.43;27.13;;;;;;;;;;5077589;28;24569;-60
2021/11/01 03:48:25;;;;;;;32.17;28.77;;;;;;;;;;5069498;28;24406;-61
2021/11/01 03:51:52;;;;;;;32.47;29.17;;;;;;;;;;5081559;28;24417;-60
2021/11/01 03:53:44;;;;;;;32.28;29.08;;;;;;;;;;5066980;28;24425;-60
2021/11/01 03:56:10;;;;;;;32.83;29.33;;;;;;;;;;5063163;28;24421;-60
2021/11/01 03:58:36;;;;;;;31.57;28.37;;;;;;;;;;5069992;28;24418;-60
2021/11/01 04:01:01;;;;;;;32.72;29.42;;;;;;;;;;5075737;28;24864;-61
2021/11/01 04:03:27;;;;;;;33.67;30.10;;;;;;;;;;5080196;28;24418;-61
2021/11/01 04:05:57;;;;;;;33.80;30.45;;;;;;;;;;5076124;28;24422;-61
2021/11/01 04:08:23;;;;;;;33.50;30.10;;;;;;;;;;5072849;28;24510;-59
2021/11/01 04:10:49;;;;;;;34.13;30.70;;;;;;;;;;5059262;28;24536;-60
2021/11/01 04:13:14;;;;;;;35.37;31.77;;;;;;;;;;5061364;28;24450;-60
2021/11/01 04:15:45;;;;;;;34.60;31.17;;;;;;;;;;5078734;28;24672;-60
2021/11/01 04:18:12;;;;;;;33.95;30.55;;;;;;;;;;5070283;28;24421;-60
2021/11/01 04:20:52;;;;;;;32.05;28.85;;;;;;;;;;5069307;28;24438;-60
2021/11/01 04:23:20;;;;;;;34.97;31.27;;;;;;;;;;5070757;28;24432;-60
2021/11/01 04:25:45;;;;;;;34.13;30.73;;;;;;;;;;5076155;28;24394;-60
2021/11/01 04:28:10;;;;;;;33.83;30.13;;;;;;;;;;5058783;28;24814;-60
2021/11/01 04:30:38;;;;;;;32.30;28.50;;;;;;;;;;5072973;28;24840;-60
2021/11/01 04:33:06;;;;;;;33.67;30.27;;;;;;;;;;5074430;28;24502;-60
2021/11/01 04:35:38;;;;;;;33.45;29.85;;;;;;;;;;5062485;28;24839;-60
2021/11/01 04:41:01;;;;;;;35.85;32.28;;;;;;;;;;5037536;28;24433;-59
2021/11/01 04:43:52;;;;;;;36.28;32.70;;;;;;;;;;5067492;28;24963;-59
2021/11/01 04:54:31;;;;;;;33.30;29.70;;;;;;;;;;5070234;28;24406;-60
2021/11/01 04:56:57;;;;;;;34.43;30.73;;;;;;;;;;5072719;28;24953;-60
2021/11/01 04:59:22;;;;;;;33.05;29.55;;;;;;;;;;5078501;28;24434;-60
2021/11/01 05:01:51;;;;;;;33.67;30.17;;;;;;;;;;5082449;28;24959;-60
2021/11/01 05:04:21;;;;;;;33.43;29.83;;;;;;;;;;5081914;28;24493;-61
2021/11/01 05:07:21;;;;;;;32.03;28.73;;;;;;;;;;5078578;28;25069;-60
2021/11/01 05:12:29;;;;;;;34.60;30.93;;;;;;;;;;5077030;28;24417;-61
2021/11/01 05:30:41;;;;;;;33.35;29.85;;;;;;;;;;5067983;28;24594;-61
2021/11/01 05:35:38;;;;;;;32.45;29.15;;;;;;;;;;5070792;28;24429;-62
2021/11/01 05:38:03;;;;;;;33.30;29.73;;;;;;;;;;5071809;28;25143;-61
2021/11/01 05:40:28;;;;;;;32.43;29.03;;;;;;;;;;5063848;28;24443;-61
2021/11/01 05:42:54;;;;;;;31.75;28.45;;;;;;;;;;5061418;28;24399;-62
2021/11/01 05:45:19;;;;;;;33.20;29.80;;;;;;;;;;5059579;28;24426;-61
2021/11/01 05:47:48;;;;;;;33.57;30.27;;;;;;;;;;5066810;28;24529;-62
2021/11/01 05:50:13;;;;;;;31.63;28.48;;;;;;;;;;5064072;28;24471;-62
2021/11/01 05:52:41;;;;;;;32.53;29.13;;;;;;;;;;5064933;28;25189;-62
2021/11/01 05:55:17;;;;;;;32.40;29.00;;;;;;;;;;5062069;28;24407;-63
2021/11/01 06:00:19;;;;;;;34.45;30.95;;;;;;;;;;5058627;28;25288;-62
2021/11/01 06:02:48;;;;;;;34.03;30.63;;;;;;;;;;5056528;28;24514;-62
2021/11/01 06:05:40;;;;;;;31.52;28.42;;;;;;;;;;5070284;28;24479;-63
2021/11/01 06:08:39;;;;;;;33.30;30.05;;;;;;;;;;5070613;28;24443;-62
2021/11/01 06:13:24;;;;;;;35.05;31.55;;;;;;;;;;5061941;28;24832;-61
2021/11/01 06:13:37;;;;;;;33.30;29.83;;;;;;;;;;5062183;28;24418;-62
2021/11/01 06:16:02;;;;;;;33.90;30.30;;;;;;;;;;5071535;28;24605;-62
2021/11/01 06:18:37;;;;;;;35.70;32.00;;;;;;;;;;5065406;28;24794;-62
2021/11/01 06:21:07;;;;;;;34.45;30.73;;;;;;;;;;5065743;28;24442;-62
2021/11/01 06:23:33;;;;;;;34.60;30.73;;;;;;;;;;5069783;28;24422;-62
2021/11/01 06:25:59;;;;;;;33.20;29.70;;;;;;;;;;5059971;28;25081;-62
2021/11/01 06:28:25;;;;;;;34.20;30.60;;;;;;;;;;5071864;28;25040;-62
2021/11/01 06:30:57;;;;;;;33.57;30.00;;;;;;;;;;5101043;28;24441;-63
2021/11/01 06:33:44;;;;;;;34.50;30.90;;;;;;;;;;5061221;28;25009;-63
2021/11/01 06:41:47;;;;;;;33.97;30.55;;;;;;;;;;5062838;28;24479;-63
2021/11/01 07:22:10;;;;;;;31.70;28.60;;;;;;;;;;5059982;28;24570;-62
2021/11/01 07:30:09;;;;;;;28.45;25.65;;;;;;;;;;5066614;28;24477;-62
2021/11/01 15:12:37;;;;;;;36.50;32.60;;;;;;;;;;6163570;22;24399;31
2021/11/01 15:33:19;;;;;;;36.90;33.10;;;;;;;;;;4998865;28;24524;-60
2021/11/01 16:19:00;;;;;;;45.70;40.85;;;;;;;;;;4980766;28;24508;-59
2021/11/01 16:21:26;;;;;;;40.30;36.15;;;;;;;;;;4987614;28;24461;-59
2021/11/01 16:23:52;;;;;;;39.40;35.40;;;;;;;;;;4991899;28;24449;-59
2021/11/01 16:26:24;;;;;;;41.60;37.20;;;;;;;;;;4996189;28;24412;-59
2021/11/01 16:28:55;;;;;;;42.05;37.65;;;;;;;;;;4988865;28;24421;-59
2021/11/01 16:31:27;;;;;;;39.70;35.65;;;;;;;;;;4991329;28;24999;-59
2021/11/01 16:33:58;;;;;;;39.05;35.05;;;;;;;;;;4995830;28;24465;-59
2021/11/01 16:36:45;;;;;;;39.20;35.10;;;;;;;;;;4995722;28;24428;-59
2021/11/01 16:39:11;;;;;;;39.33;35.13;;;;;;;;;;5001157;28;24475;-59
2021/11/01 16:41:37;;;;;;;38.40;34.40;;;;;;;;;;4994687;28;24532;-59
2021/11/01 16:44:15;;;;;;;39.72;35.63;;;;;;;;;;4990079;28;24428;-59
2021/11/01 16:46:40;;;;;;;40.33;35.95;;;;;;;;;;4999158;28;24420;-59
2021/11/01 16:49:06;;;;;;;40.13;35.83;;;;;;;;;;5003647;28;24431;-59
2021/11/01 16:51:33;;;;;;;39.20;35.00;;;;;;;;;;5003753;28;24589;-59
2021/11/01 16:54:10;;;;;;;38.90;34.80;;;;;;;;;;4999390;28;24528;-58
2021/11/01 16:56:50;;;;;;;41.15;36.85;;;;;;;;;;5002742;28;24412;-58
2021/11/01 16:59:38;;;;;;;40.45;36.20;;;;;;;;;;5004652;28;24407;-58
2021/11/01 17:05:01;;;;;;;43.03;38.63;;;;;;;;;;4978626;28;24435;-58
2021/11/01 17:21:17;;;;;;;44.13;39.22;;;;;;;;;;4991760;28;24571;-58
2021/11/01 17:28:42;;;;;;;39.80;35.60;;;;;;;;;;5000338;28;24578;-59
2021/11/01 17:34:37;;;;;;;46.15;41.22;;;;;;;;;;5003380;28;24415;-58
2021/11/01 17:37:42;;;;;;;43.63;38.90;;;;;;;;;;5002897;28;24416;-58
2021/11/01 18:24:59;;;;;;;53.63;47.17;;;;;;;;;;4995539;28;24451;-58
2021/11/01 18:38:03;;;;;;;52.05;45.97;;;;;;;;;;4994806;28;25139;-57
2021/11/01 18:40:37;;;;;;;62.17;52.28;;;;;;;;;;4997578;28;25036;-59
2021/11/01 18:45:56;;;;;;;47.93;42.83;;;;;;;;;;4995681;28;24775;-60
2021/11/01 18:51:12;;;;;;;52.60;45.85;;;;;;;;;;4997494;28;24439;-59
2021/11/01 18:53:37;;;;;;;49.88;44.67;;;;;;;;;;4995550;28;24961;-58
2021/11/01 18:56:04;;;;;;;48.33;43.33;;;;;;;;;;4997211;28;24980;-58
2021/11/01 18:58:31;;;;;;;53.50;45.72;;;;;;;;;;4998224;28;24408;-58
2021/11/01 19:00:58;;;;;;;50.95;44.72;;;;;;;;;;4996313;28;24993;-57
2021/11/01 19:03:26;;;;;;;51.47;44.55;;;;;;;;;;4993862;28;24487;-57
2021/11/01 19:08:43;;;;;;;49.40;43.47;;;;;;;;;;4995867;28;24519;-58
2021/11/01 19:14:16;;;;;;;47.92;42.85;;;;;;;;;;5004531;28;24427;-58
2021/11/01 19:18:01;;;;;;;49.05;42.60;;;;;;;;;;4999295;28;24419;-58
2021/11/01 20:03:46;;;;;;;50.92;43.10;;;;;;;;;;4998455;28;25188;-57
2021/11/01 20:13:56;;;;;;;52.17;44.92;;;;;;;;;;4998483;28;24427;-56
2021/11/01 21:25:44;;;;;;;49.63;44.33;;;;;;;;;;4999253;28;24477;-56
2021/11/01 21:28:09;;;;;;;50.88;43.60;;;;;;;;;;5000786;28;24408;-56
2021/11/01 21:30:34;;;;;;;50.97;45.53;;;;;;;;;;5001385;28;24397;-56
2021/11/01 21:32:59;;;;;;;51.37;45.30;;;;;;;;;;4998863;28;24401;-57
2021/11/01 21:35:30;;;;;;;53.20;45.80;;;;;;;;;;5000771;28;24393;-56
2021/11/01 21:37:58;;;;;;;50.08;44.63;;;;;;;;;;4999984;28;24416;-56
2021/11/01 21:40:23;;;;;;;53.00;46.03;;;;;;;;;;5003878;28;24423;-57
2021/11/01 21:42:51;;;;;;;51.00;45.40;;;;;;;;;;5001572;28;24443;-57
2021/11/01 21:45:16;;;;;;;49.85;44.30;;;;;;;;;;5003137;28;24775;-57
2021/11/01 21:47:42;;;;;;;51.10;44.20;;;;;;;;;;4997917;28;24416;-56
2021/11/01 21:50:07;;;;;;;52.17;46.25;;;;;;;;;;4997506;28;24926;-57
2021/11/01 21:52:34;;;;;;;51.67;44.57;;;;;;;;;;5002203;28;24424;-57
2021/11/01 21:55:00;;;;;;;52.88;46.05;;;;;;;;;;5003040;28;24419;-56
2021/11/01 21:57:32;;;;;;;54.63;47.27;;;;;;;;;;5003219;28;24523;-57
2021/11/01 22:19:21;;;;;;;47.53;41.97;;;;;;;;;;4996718;28;24567;-57
2021/11/01 22:24:34;;;;;;;46.08;40.88;;;;;;;;;;4993549;28;24439;-57
2021/11/01 22:42:42;;;;;;;39.97;35.57;;;;;;;;;;5002286;28;24591;-57
2021/11/01 22:58:13;;;;;;;30.55;27.25;;;;;;;;;;5002672;28;24413;-56
2021/11/01 23:00:50;;;;;;;28.95;25.30;;;;;;;;;;4998480;28;24409;-56
2021/11/01 23:04:01;;;;;;;29.73;25.50;;;;;;;;;;4994408;28;24858;-56
2021/11/01 23:33:45;;;;;;;41.45;36.28;;;;;;;;;;5002093;28;24448;-56
2021/11/01 23:36:11;;;;;;;44.17;37.83;;;;;;;;;;5001802;28;25324;-56
2021/11/01 23:38:36;;;;;;;40.65;34.58;;;;;;;;;;5001096;28;24569;-56
2021/11/01 23:41:02;;;;;;;37.20;32.80;;;;;;;;;;4997407;28;25087;-56
2021/11/01 23:43:27;;;;;;;48.50;38.67;;;;;;;;;;4997761;28;24408;-56
2021/11/01 23:45:52;;;;;;;42.20;35.57;;;;;;;;;;4997554;28;25158;-56
2021/11/01 23:48:18;;;;;;;40.95;34.05;;;;;;;;;;5002563;28;24395;-56
2021/11/01 23:50:45;;;;;;;41.95;34.70;;;;;;;;;;5000086;28;24969;-56
2021/11/01 23:53:14;;;;;;;37.88;33.47;;;;;;;;;;5001670;28;24975;-56
2021/11/01 23:55:39;;;;;;;35.43;31.53;;;;;;;;;;4998141;28;24416;-56
2021/11/01 23:58:05;;;;;;;33.07;29.13;;;;;;;;;;4996780;28;24440;-57
